sensor_id;sensor_type;location;lat;lon;timestamp;P1;durP1;ratioP1;P2;durP2;ratioP2
13605;SDS011;6874;52.084;5.090;2023-04-06T00:01:32;7.50;;;7.30;;
13605;SDS011;6874;52.084;5.090;2023-04-06T00:03:57;7.30;;;7.10;;
13605;SDS011;6874;52.084;5.090;2023-04-06T00:06:23;7.90;;;7.70;;
13605;SDS011;6874;52.084;5.090;2023-04-06T00:08:48;8.00;;;7.80;;
13605;SDS011;6874;52.084;5.090;2023-04-06T00:11:14;7.50;;;7.30;;
13605;SDS011;6874;52.084;5.090;2023-04-06T00:13:41;8.10;;;7.90;;
13605;SDS011;6874;52.084;5.090;2023-04-06T00:16:07;8.33;;;8.13;;
13605;SDS011;6874;52.084;5.090;2023-04-06T00:18:32;8.20;;;8.00;;
13605;SDS011;6874;52.084;5.090;2023-04-06T00:20:58;7.87;;;7.67;;
13605;SDS011;6874;52.084;5.090;2023-04-06T00:23:23;9.10;;;8.80;;
13605;SDS011;6874;52.084;5.090;2023-04-06T00:25:49;9.43;;;9.13;;
13605;SDS011;6874;52.084;5.090;2023-04-06T00:28:15;9.73;;;9.43;;
13605;SDS011;6874;52.084;5.090;2023-04-06T00:30:41;9.57;;;9.27;;
13605;SDS011;6874;52.084;5.090;2023-04-06T00:33:06;10.00;;;9.70;;
13605;SDS011;6874;52.084;5.090;2023-04-06T00:35:32;9.83;;;9.53;;
13605;SDS011;6874;52.084;5.090;2023-04-06T00:37:57;10.47;;;10.17;;
13605;SDS011;6874;52.084;5.090;2023-04-06T00:40:23;9.10;;;8.83;;
13605;SDS011;6874;52.084;5.090;2023-04-06T00:42:49;10.03;;;9.73;;
13605;SDS011;6874;52.084;5.090;2023-04-06T00:45:15;10.77;;;10.47;;
13605;SDS011;6874;52.084;5.090;2023-04-06T00:47:41;10.27;;;9.97;;
13605;SDS011;6874;52.084;5.090;2023-04-06T00:50:07;10.40;;;10.10;;
13605;SDS011;6874;52.084;5.090;2023-04-06T00:52:33;11.23;;;10.93;;
13605;SDS011;6874;52.084;5.090;2023-04-06T00:55:00;10.67;;;10.37;;
13605;SDS011;6874;52.084;5.090;2023-04-06T00:57:26;11.87;;;11.53;;
13605;SDS011;6874;52.084;5.090;2023-04-06T00:59:52;11.10;;;10.80;;
13605;SDS011;6874;52.084;5.090;2023-04-06T01:02:18;10.33;;;10.03;;
13605;SDS011;6874;52.084;5.090;2023-04-06T01:04:43;11.37;;;11.03;;
13605;SDS011;6874;52.084;5.090;2023-04-06T01:07:09;10.73;;;10.43;;
13605;SDS011;6874;52.084;5.090;2023-04-06T01:09:35;11.33;;;11.00;;
13605;SDS011;6874;52.084;5.090;2023-04-06T01:12:01;11.37;;;11.03;;
13605;SDS011;6874;52.084;5.090;2023-04-06T01:14:27;11.70;;;11.37;;
13605;SDS011;6874;52.084;5.090;2023-04-06T01:16:52;11.83;;;11.50;;
13605;SDS011;6874;52.084;5.090;2023-04-06T01:19:18;10.87;;;10.57;;
13605;SDS011;6874;52.084;5.090;2023-04-06T01:21:45;10.60;;;10.30;;
13605;SDS011;6874;52.084;5.090;2023-04-06T01:24:11;11.23;;;10.90;;
13605;SDS011;6874;52.084;5.090;2023-04-06T01:26:37;10.47;;;10.17;;
13605;SDS011;6874;52.084;5.090;2023-04-06T01:29:03;10.57;;;10.27;;
13605;SDS011;6874;52.084;5.090;2023-04-06T01:31:29;10.70;;;10.40;;
13605;SDS011;6874;52.084;5.090;2023-04-06T01:33:54;10.00;;;9.70;;
13605;SDS011;6874;52.084;5.090;2023-04-06T01:36:21;10.83;;;10.53;;
13605;SDS011;6874;52.084;5.090;2023-04-06T01:38:46;10.57;;;10.27;;
13605;SDS011;6874;52.084;5.090;2023-04-06T01:41:12;10.97;;;10.67;;
13605;SDS011;6874;52.084;5.090;2023-04-06T01:43:37;11.13;;;10.83;;
13605;SDS011;6874;52.084;5.090;2023-04-06T01:46:03;10.53;;;10.23;;
13605;SDS011;6874;52.084;5.090;2023-04-06T01:48:29;10.27;;;9.97;;
13605;SDS011;6874;52.084;5.090;2023-04-06T01:50:55;11.00;;;10.70;;
13605;SDS011;6874;52.084;5.090;2023-04-06T01:53:20;11.10;;;10.80;;
13605;SDS011;6874;52.084;5.090;2023-04-06T01:55:46;11.43;;;11.10;;
13605;SDS011;6874;52.084;5.090;2023-04-06T01:58:12;11.57;;;11.23;;
13605;SDS011;6874;52.084;5.090;2023-04-06T02:00:38;10.40;;;10.10;;
13605;SDS011;6874;52.084;5.090;2023-04-06T02:03:04;10.27;;;9.97;;
13605;SDS011;6874;52.084;5.090;2023-04-06T02:05:30;11.03;;;10.73;;
13605;SDS011;6874;52.084;5.090;2023-04-06T02:08:02;10.77;;;10.47;;
13605;SDS011;6874;52.084;5.090;2023-04-06T02:10:31;10.13;;;9.83;;
13605;SDS011;6874;52.084;5.090;2023-04-06T02:12:57;11.13;;;10.83;;
13605;SDS011;6874;52.084;5.090;2023-04-06T02:15:22;10.73;;;10.43;;
13605;SDS011;6874;52.084;5.090;2023-04-06T02:17:48;11.40;;;11.07;;
13605;SDS011;6874;52.084;5.090;2023-04-06T02:20:13;11.07;;;10.77;;
13605;SDS011;6874;52.084;5.090;2023-04-06T02:22:39;10.70;;;10.40;;
13605;SDS011;6874;52.084;5.090;2023-04-06T02:25:05;10.97;;;10.67;;
13605;SDS011;6874;52.084;5.090;2023-04-06T02:27:31;11.33;;;11.00;;
13605;SDS011;6874;52.084;5.090;2023-04-06T02:29:56;11.07;;;10.77;;
13605;SDS011;6874;52.084;5.090;2023-04-06T02:32:22;10.97;;;10.67;;
13605;SDS011;6874;52.084;5.090;2023-04-06T02:34:47;11.13;;;10.80;;
13605;SDS011;6874;52.084;5.090;2023-04-06T02:37:13;11.07;;;10.77;;
13605;SDS011;6874;52.084;5.090;2023-04-06T02:39:38;10.40;;;10.10;;
13605;SDS011;6874;52.084;5.090;2023-04-06T02:42:04;10.90;;;10.60;;
13605;SDS011;6874;52.084;5.090;2023-04-06T02:44:30;10.63;;;10.33;;
13605;SDS011;6874;52.084;5.090;2023-04-06T02:46:55;10.70;;;10.40;;
13605;SDS011;6874;52.084;5.090;2023-04-06T02:49:21;11.03;;;10.73;;
13605;SDS011;6874;52.084;5.090;2023-04-06T02:51:46;11.40;;;11.07;;
13605;SDS011;6874;52.084;5.090;2023-04-06T02:54:12;10.47;;;10.17;;
13605;SDS011;6874;52.084;5.090;2023-04-06T02:56:38;11.00;;;10.70;;
13605;SDS011;6874;52.084;5.090;2023-04-06T02:59:03;11.53;;;11.20;;
13605;SDS011;6874;52.084;5.090;2023-04-06T03:01:29;10.17;;;9.87;;
13605;SDS011;6874;52.084;5.090;2023-04-06T03:03:54;10.43;;;10.13;;
13605;SDS011;6874;52.084;5.090;2023-04-06T03:06:20;11.10;;;10.80;;
13605;SDS011;6874;52.084;5.090;2023-04-06T03:08:45;10.57;;;10.27;;
13605;SDS011;6874;52.084;5.090;2023-04-06T03:11:12;11.87;;;11.53;;
13605;SDS011;6874;52.084;5.090;2023-04-06T03:13:37;11.30;;;10.97;;
13605;SDS011;6874;52.084;5.090;2023-04-06T03:16:06;10.93;;;10.63;;
13605;SDS011;6874;52.084;5.090;2023-04-06T03:18:31;11.23;;;10.93;;
13605;SDS011;6874;52.084;5.090;2023-04-06T03:20:57;11.57;;;11.23;;
13605;SDS011;6874;52.084;5.090;2023-04-06T03:23:25;11.30;;;10.97;;
13605;SDS011;6874;52.084;5.090;2023-04-06T03:25:50;10.83;;;10.53;;
13605;SDS011;6874;52.084;5.090;2023-04-06T03:28:16;12.30;;;11.93;;
13605;SDS011;6874;52.084;5.090;2023-04-06T03:30:41;11.50;;;11.17;;
13605;SDS011;6874;52.084;5.090;2023-04-06T03:33:07;11.80;;;11.47;;
13605;SDS011;6874;52.084;5.090;2023-04-06T03:35:33;11.47;;;11.13;;
13605;SDS011;6874;52.084;5.090;2023-04-06T03:37:58;11.93;;;11.57;;
13605;SDS011;6874;52.084;5.090;2023-04-06T03:40:24;11.37;;;11.03;;
13605;SDS011;6874;52.084;5.090;2023-04-06T03:42:50;12.07;;;11.70;;
13605;SDS011;6874;52.084;5.090;2023-04-06T03:45:15;11.53;;;11.20;;
13605;SDS011;6874;52.084;5.090;2023-04-06T03:47:41;11.43;;;11.10;;
13605;SDS011;6874;52.084;5.090;2023-04-06T03:50:07;11.20;;;10.90;;
13605;SDS011;6874;52.084;5.090;2023-04-06T03:52:34;11.43;;;11.10;;
13605;SDS011;6874;52.084;5.090;2023-04-06T03:55:00;10.87;;;10.57;;
13605;SDS011;6874;52.084;5.090;2023-04-06T03:57:25;11.20;;;10.87;;
13605;SDS011;6874;52.084;5.090;2023-04-06T03:59:51;10.93;;;10.63;;
13605;SDS011;6874;52.084;5.090;2023-04-06T04:02:17;10.63;;;10.33;;
13605;SDS011;6874;52.084;5.090;2023-04-06T04:04:42;10.53;;;10.23;;
13605;SDS011;6874;52.084;5.090;2023-04-06T04:07:08;10.83;;;10.53;;
13605;SDS011;6874;52.084;5.090;2023-04-06T04:09:33;10.83;;;10.53;;
13605;SDS011;6874;52.084;5.090;2023-04-06T04:11:59;10.17;;;9.87;;
13605;SDS011;6874;52.084;5.090;2023-04-06T04:14:25;10.07;;;9.77;;
13605;SDS011;6874;52.084;5.090;2023-04-06T04:16:50;10.87;;;10.57;;
13605;SDS011;6874;52.084;5.090;2023-04-06T04:19:16;9.77;;;9.47;;
13605;SDS011;6874;52.084;5.090;2023-04-06T04:21:42;9.90;;;9.60;;
13605;SDS011;6874;52.084;5.090;2023-04-06T04:24:09;10.23;;;9.93;;
13605;SDS011;6874;52.084;5.090;2023-04-06T04:26:35;9.67;;;9.37;;
13605;SDS011;6874;52.084;5.090;2023-04-06T04:29:00;9.87;;;9.57;;
13605;SDS011;6874;52.084;5.090;2023-04-06T04:31:26;10.13;;;9.83;;
13605;SDS011;6874;52.084;5.090;2023-04-06T04:33:52;10.03;;;9.73;;
13605;SDS011;6874;52.084;5.090;2023-04-06T04:36:17;9.07;;;8.80;;
13605;SDS011;6874;52.084;5.090;2023-04-06T04:38:43;9.23;;;8.97;;
13605;SDS011;6874;52.084;5.090;2023-04-06T04:41:08;9.43;;;9.13;;
13605;SDS011;6874;52.084;5.090;2023-04-06T04:43:34;9.20;;;8.93;;
13605;SDS011;6874;52.084;5.090;2023-04-06T04:45:59;9.27;;;8.97;;
13605;SDS011;6874;52.084;5.090;2023-04-06T04:48:25;8.83;;;8.57;;
13605;SDS011;6874;52.084;5.090;2023-04-06T04:50:51;9.27;;;8.97;;
13605;SDS011;6874;52.084;5.090;2023-04-06T04:53:16;8.87;;;8.63;;
13605;SDS011;6874;52.084;5.090;2023-04-06T04:55:42;9.07;;;8.80;;
13605;SDS011;6874;52.084;5.090;2023-04-06T04:58:07;8.87;;;8.60;;
13605;SDS011;6874;52.084;5.090;2023-04-06T05:00:34;9.03;;;8.77;;
13605;SDS011;6874;52.084;5.090;2023-04-06T05:03:00;9.10;;;8.83;;
13605;SDS011;6874;52.084;5.090;2023-04-06T05:05:25;9.00;;;8.73;;
13605;SDS011;6874;52.084;5.090;2023-04-06T05:07:51;9.30;;;9.03;;
13605;SDS011;6874;52.084;5.090;2023-04-06T05:10:16;8.67;;;8.43;;
13605;SDS011;6874;52.084;5.090;2023-04-06T05:12:42;9.10;;;8.83;;
13605;SDS011;6874;52.084;5.090;2023-04-06T05:15:08;10.13;;;9.83;;
13605;SDS011;6874;52.084;5.090;2023-04-06T05:17:34;9.07;;;8.80;;
13605;SDS011;6874;52.084;5.090;2023-04-06T05:20:00;9.17;;;8.90;;
13605;SDS011;6874;52.084;5.090;2023-04-06T05:22:25;9.03;;;8.77;;
13605;SDS011;6874;52.084;5.090;2023-04-06T05:24:51;8.20;;;8.00;;
13605;SDS011;6874;52.084;5.090;2023-04-06T05:27:16;8.77;;;8.53;;
13605;SDS011;6874;52.084;5.090;2023-04-06T05:29:42;8.23;;;8.03;;
13605;SDS011;6874;52.084;5.090;2023-04-06T05:32:07;8.77;;;8.53;;
13605;SDS011;6874;52.084;5.090;2023-04-06T05:34:33;9.13;;;8.87;;
13605;SDS011;6874;52.084;5.090;2023-04-06T05:36:59;9.10;;;8.83;;
13605;SDS011;6874;52.084;5.090;2023-04-06T05:39:24;8.60;;;8.37;;
13605;SDS011;6874;52.084;5.090;2023-04-06T05:41:50;8.20;;;8.00;;
13605;SDS011;6874;52.084;5.090;2023-04-06T05:44:16;8.47;;;8.23;;
13605;SDS011;6874;52.084;5.090;2023-04-06T05:46:41;8.77;;;8.53;;
13605;SDS011;6874;52.084;5.090;2023-04-06T05:49:07;8.63;;;8.40;;
13605;SDS011;6874;52.084;5.090;2023-04-06T05:51:32;8.20;;;8.00;;
13605;SDS011;6874;52.084;5.090;2023-04-06T05:53:58;8.93;;;8.67;;
13605;SDS011;6874;52.084;5.090;2023-04-06T05:56:24;8.43;;;8.23;;
13605;SDS011;6874;52.084;5.090;2023-04-06T05:58:50;8.87;;;8.60;;
13605;SDS011;6874;52.084;5.090;2023-04-06T06:01:16;8.60;;;8.37;;
13605;SDS011;6874;52.084;5.090;2023-04-06T06:03:41;9.00;;;8.70;;
13605;SDS011;6874;52.084;5.090;2023-04-06T06:06:07;9.17;;;8.90;;
13605;SDS011;6874;52.084;5.090;2023-04-06T06:08:32;9.20;;;8.90;;
13605;SDS011;6874;52.084;5.090;2023-04-06T06:10:58;9.60;;;9.30;;
13605;SDS011;6874;52.084;5.090;2023-04-06T06:13:24;9.73;;;9.43;;
13605;SDS011;6874;52.084;5.090;2023-04-06T06:15:49;8.50;;;8.30;;
13605;SDS011;6874;52.084;5.090;2023-04-06T06:18:15;8.30;;;8.10;;
13605;SDS011;6874;52.084;5.090;2023-04-06T06:20:41;8.07;;;7.87;;
13605;SDS011;6874;52.084;5.090;2023-04-06T06:23:07;7.90;;;7.70;;
13605;SDS011;6874;52.084;5.090;2023-04-06T06:25:32;7.87;;;7.67;;
13605;SDS011;6874;52.084;5.090;2023-04-06T06:27:58;7.83;;;7.63;;
13605;SDS011;6874;52.084;5.090;2023-04-06T06:30:24;7.07;;;6.87;;
13605;SDS011;6874;52.084;5.090;2023-04-06T06:32:50;7.00;;;6.80;;
13605;SDS011;6874;52.084;5.090;2023-04-06T06:35:16;7.20;;;7.00;;
13605;SDS011;6874;52.084;5.090;2023-04-06T06:37:41;7.13;;;6.93;;
13605;SDS011;6874;52.084;5.090;2023-04-06T06:40:08;7.43;;;7.23;;
13605;SDS011;6874;52.084;5.090;2023-04-06T06:42:35;7.10;;;6.90;;
13605;SDS011;6874;52.084;5.090;2023-04-06T06:45:00;7.17;;;6.97;;
13605;SDS011;6874;52.084;5.090;2023-04-06T06:47:26;7.20;;;7.00;;
13605;SDS011;6874;52.084;5.090;2023-04-06T06:49:52;7.20;;;7.00;;
13605;SDS011;6874;52.084;5.090;2023-04-06T06:52:17;7.70;;;7.50;;
13605;SDS011;6874;52.084;5.090;2023-04-06T06:54:43;7.60;;;7.40;;
13605;SDS011;6874;52.084;5.090;2023-04-06T06:57:09;7.67;;;7.47;;
13605;SDS011;6874;52.084;5.090;2023-04-06T06:59:35;7.57;;;7.37;;
13605;SDS011;6874;52.084;5.090;2023-04-06T07:02:00;7.37;;;7.17;;
13605;SDS011;6874;52.084;5.090;2023-04-06T07:04:26;7.63;;;7.43;;
13605;SDS011;6874;52.084;5.090;2023-04-06T07:06:51;8.57;;;8.37;;
13605;SDS011;6874;52.084;5.090;2023-04-06T07:09:17;8.23;;;8.03;;
13605;SDS011;6874;52.084;5.090;2023-04-06T07:11:43;9.10;;;8.80;;
13605;SDS011;6874;52.084;5.090;2023-04-06T07:14:08;8.37;;;8.17;;
13605;SDS011;6874;52.084;5.090;2023-04-06T07:16:34;9.00;;;8.73;;
13605;SDS011;6874;52.084;5.090;2023-04-06T07:19:00;7.67;;;7.47;;
13605;SDS011;6874;52.084;5.090;2023-04-06T07:21:25;8.50;;;8.30;;
13605;SDS011;6874;52.084;5.090;2023-04-06T07:23:51;8.13;;;7.93;;
13605;SDS011;6874;52.084;5.090;2023-04-06T07:26:17;8.47;;;8.23;;
13605;SDS011;6874;52.084;5.090;2023-04-06T07:28:42;7.93;;;7.73;;
13605;SDS011;6874;52.084;5.090;2023-04-06T07:31:08;9.17;;;8.87;;
13605;SDS011;6874;52.084;5.090;2023-04-06T07:33:34;8.00;;;7.80;;
13605;SDS011;6874;52.084;5.090;2023-04-06T07:35:59;8.70;;;8.50;;
13605;SDS011;6874;52.084;5.090;2023-04-06T07:38:25;8.10;;;7.90;;
13605;SDS011;6874;52.084;5.090;2023-04-06T07:40:50;8.13;;;7.93;;
13605;SDS011;6874;52.084;5.090;2023-04-06T07:43:16;8.47;;;8.27;;
13605;SDS011;6874;52.084;5.090;2023-04-06T07:45:42;8.43;;;8.23;;
13605;SDS011;6874;52.084;5.090;2023-04-06T07:48:07;8.53;;;8.30;;
13605;SDS011;6874;52.084;5.090;2023-04-06T07:50:33;8.97;;;8.70;;
13605;SDS011;6874;52.084;5.090;2023-04-06T07:52:58;8.33;;;8.13;;
13605;SDS011;6874;52.084;5.090;2023-04-06T07:55:25;7.83;;;7.63;;
13605;SDS011;6874;52.084;5.090;2023-04-06T07:57:50;8.47;;;8.27;;
13605;SDS011;6874;52.084;5.090;2023-04-06T08:00:16;8.10;;;7.90;;
13605;SDS011;6874;52.084;5.090;2023-04-06T08:02:42;8.73;;;8.50;;
13605;SDS011;6874;52.084;5.090;2023-04-06T08:05:08;8.40;;;8.20;;
13605;SDS011;6874;52.084;5.090;2023-04-06T08:07:33;9.07;;;8.80;;
13605;SDS011;6874;52.084;5.090;2023-04-06T08:10:00;8.50;;;8.30;;
13605;SDS011;6874;52.084;5.090;2023-04-06T08:12:26;6.83;;;6.63;;
13605;SDS011;6874;52.084;5.090;2023-04-06T08:14:51;6.40;;;6.20;;
13605;SDS011;6874;52.084;5.090;2023-04-06T08:17:17;7.07;;;6.87;;
13605;SDS011;6874;52.084;5.090;2023-04-06T08:19:43;7.53;;;7.33;;
13605;SDS011;6874;52.084;5.090;2023-04-06T08:22:09;8.40;;;8.20;;
13605;SDS011;6874;52.084;5.090;2023-04-06T08:24:35;7.77;;;7.57;;
13605;SDS011;6874;52.084;5.090;2023-04-06T08:27:01;8.63;;;8.43;;
13605;SDS011;6874;52.084;5.090;2023-04-06T08:29:26;8.23;;;8.03;;
13605;SDS011;6874;52.084;5.090;2023-04-06T08:31:52;8.70;;;8.50;;
13605;SDS011;6874;52.084;5.090;2023-04-06T08:34:17;8.50;;;8.30;;
13605;SDS011;6874;52.084;5.090;2023-04-06T08:36:43;8.93;;;8.67;;
13605;SDS011;6874;52.084;5.090;2023-04-06T08:39:08;8.43;;;8.23;;
13605;SDS011;6874;52.084;5.090;2023-04-06T08:41:34;8.33;;;8.13;;
13605;SDS011;6874;52.084;5.090;2023-04-06T08:44:01;8.27;;;8.07;;
13605;SDS011;6874;52.084;5.090;2023-04-06T08:46:28;8.23;;;8.03;;
13605;SDS011;6874;52.084;5.090;2023-04-06T08:48:59;7.47;;;7.27;;
13605;SDS011;6874;52.084;5.090;2023-04-06T08:51:26;7.10;;;6.90;;
13605;SDS011;6874;52.084;5.090;2023-04-06T08:53:52;6.27;;;6.07;;
13605;SDS011;6874;52.084;5.090;2023-04-06T08:56:20;5.80;;;5.63;;
13605;SDS011;6874;52.084;5.090;2023-04-06T08:58:46;6.00;;;5.80;;
13605;SDS011;6874;52.084;5.090;2023-04-06T09:01:13;5.20;;;5.10;;
13605;SDS011;6874;52.084;5.090;2023-04-06T09:03:41;5.10;;;5.00;;
13605;SDS011;6874;52.084;5.090;2023-04-06T09:06:07;5.27;;;5.17;;
13605;SDS011;6874;52.084;5.090;2023-04-06T09:08:34;5.27;;;5.17;;
13605;SDS011;6874;52.084;5.090;2023-04-06T09:11:01;5.93;;;5.73;;
13605;SDS011;6874;52.084;5.090;2023-04-06T09:13:28;5.83;;;5.63;;
13605;SDS011;6874;52.084;5.090;2023-04-06T09:16:00;5.60;;;5.47;;
13605;SDS011;6874;52.084;5.090;2023-04-06T09:18:28;5.50;;;5.40;;
13605;SDS011;6874;52.084;5.090;2023-04-06T09:21:02;5.07;;;4.97;;
13605;SDS011;6874;52.084;5.090;2023-04-06T09:23:29;5.27;;;5.17;;
13605;SDS011;6874;52.084;5.090;2023-04-06T09:26:10;5.40;;;5.27;;
13605;SDS011;6874;52.084;5.090;2023-04-06T09:28:49;4.93;;;4.83;;
13605;SDS011;6874;52.084;5.090;2023-04-06T09:31:17;5.33;;;5.23;;
13605;SDS011;6874;52.084;5.090;2023-04-06T09:33:51;5.50;;;5.40;;
13605;SDS011;6874;52.084;5.090;2023-04-06T09:36:19;6.07;;;5.87;;
13605;SDS011;6874;52.084;5.090;2023-04-06T09:38:55;5.77;;;5.60;;
13605;SDS011;6874;52.084;5.090;2023-04-06T09:41:22;5.80;;;5.60;;
13605;SDS011;6874;52.084;5.090;2023-04-06T09:44:01;6.57;;;6.37;;
13605;SDS011;6874;52.084;5.090;2023-04-06T09:46:34;7.10;;;6.90;;
13605;SDS011;6874;52.084;5.090;2023-04-06T09:49:02;7.30;;;7.10;;
13605;SDS011;6874;52.084;5.090;2023-04-06T09:51:30;8.87;;;8.63;;
13605;SDS011;6874;52.084;5.090;2023-04-06T09:54:00;8.07;;;7.87;;
13605;SDS011;6874;52.084;5.090;2023-04-06T09:56:28;7.37;;;7.17;;
13605;SDS011;6874;52.084;5.090;2023-04-06T09:58:57;7.50;;;7.30;;
13605;SDS011;6874;52.084;5.090;2023-04-06T10:01:29;6.80;;;6.60;;
13605;SDS011;6874;52.084;5.090;2023-04-06T10:04:01;6.63;;;6.43;;
13605;SDS011;6874;52.084;5.090;2023-04-06T10:06:32;6.13;;;5.93;;
13605;SDS011;6874;52.084;5.090;2023-04-06T10:09:00;6.93;;;6.73;;
13605;SDS011;6874;52.084;5.090;2023-04-06T10:11:28;6.93;;;6.73;;
13605;SDS011;6874;52.084;5.090;2023-04-06T10:13:54;6.73;;;6.53;;
13605;SDS011;6874;52.084;5.090;2023-04-06T10:16:20;7.90;;;7.70;;
13605;SDS011;6874;52.084;5.090;2023-04-06T10:18:51;6.90;;;6.70;;
13605;SDS011;6874;52.084;5.090;2023-04-06T10:21:20;7.00;;;6.80;;
13605;SDS011;6874;52.084;5.090;2023-04-06T10:23:52;7.10;;;6.90;;
13605;SDS011;6874;52.084;5.090;2023-04-06T10:26:23;6.83;;;6.63;;
13605;SDS011;6874;52.084;5.090;2023-04-06T10:28:50;7.10;;;6.90;;
13605;SDS011;6874;52.084;5.090;2023-04-06T10:31:23;7.23;;;7.03;;
13605;SDS011;6874;52.084;5.090;2023-04-06T10:34:02;6.70;;;6.50;;
13605;SDS011;6874;52.084;5.090;2023-04-06T10:36:31;6.87;;;6.67;;
13605;SDS011;6874;52.084;5.090;2023-04-06T10:38:59;7.33;;;7.13;;
13605;SDS011;6874;52.084;5.090;2023-04-06T10:41:42;6.80;;;6.60;;
13605;SDS011;6874;52.084;5.090;2023-04-06T10:44:17;7.30;;;7.10;;
13605;SDS011;6874;52.084;5.090;2023-04-06T10:46:53;7.87;;;7.67;;
13605;SDS011;6874;52.084;5.090;2023-04-06T10:49:22;7.73;;;7.53;;
13605;SDS011;6874;52.084;5.090;2023-04-06T10:51:56;7.13;;;6.93;;
13605;SDS011;6874;52.084;5.090;2023-04-06T10:54:22;7.33;;;7.13;;
13605;SDS011;6874;52.084;5.090;2023-04-06T10:56:49;7.20;;;7.00;;
13605;SDS011;6874;52.084;5.090;2023-04-06T10:59:19;7.83;;;7.63;;
13605;SDS011;6874;52.084;5.090;2023-04-06T11:01:45;7.73;;;7.53;;
13605;SDS011;6874;52.084;5.090;2023-04-06T11:04:15;7.83;;;7.63;;
13605;SDS011;6874;52.084;5.090;2023-04-06T11:06:47;8.63;;;8.40;;
13605;SDS011;6874;52.084;5.090;2023-04-06T11:09:27;8.90;;;8.63;;
13605;SDS011;6874;52.084;5.090;2023-04-06T11:11:53;8.43;;;8.23;;
13605;SDS011;6874;52.084;5.090;2023-04-06T11:14:20;9.23;;;8.93;;
13605;SDS011;6874;52.084;5.090;2023-04-06T11:16:46;9.00;;;8.70;;
13605;SDS011;6874;52.084;5.090;2023-04-06T11:19:15;9.37;;;9.07;;
13605;SDS011;6874;52.084;5.090;2023-04-06T11:21:42;9.83;;;9.53;;
13605;SDS011;6874;52.084;5.090;2023-04-06T11:26:48;8.77;;;8.53;;
13605;SDS011;6874;52.084;5.090;2023-04-06T11:29:16;9.50;;;9.20;;
13605;SDS011;6874;52.084;5.090;2023-04-06T11:31:47;8.67;;;8.40;;
13605;SDS011;6874;52.084;5.090;2023-04-06T11:34:18;9.20;;;8.90;;
13605;SDS011;6874;52.084;5.090;2023-04-06T11:36:45;9.57;;;9.27;;
13605;SDS011;6874;52.084;5.090;2023-04-06T11:39:20;9.50;;;9.20;;
13605;SDS011;6874;52.084;5.090;2023-04-06T11:41:48;9.33;;;9.03;;
13605;SDS011;6874;52.084;5.090;2023-04-06T11:44:34;9.07;;;8.77;;
13605;SDS011;6874;52.084;5.090;2023-04-06T11:47:11;10.53;;;10.23;;
13605;SDS011;6874;52.084;5.090;2023-04-06T11:49:38;10.40;;;10.10;;
13605;SDS011;6874;52.084;5.090;2023-04-06T11:54:48;10.50;;;10.20;;
13605;SDS011;6874;52.084;5.090;2023-04-06T11:57:15;10.53;;;10.23;;
13605;SDS011;6874;52.084;5.090;2023-04-06T11:59:41;10.60;;;10.30;;
13605;SDS011;6874;52.084;5.090;2023-04-06T12:02:07;11.07;;;10.73;;
13605;SDS011;6874;52.084;5.090;2023-04-06T12:04:33;11.97;;;11.60;;
13605;SDS011;6874;52.084;5.090;2023-04-06T12:06:59;10.77;;;10.47;;
13605;SDS011;6874;52.084;5.090;2023-04-06T12:09:25;10.53;;;10.23;;
13605;SDS011;6874;52.084;5.090;2023-04-06T12:11:50;12.13;;;11.77;;
13605;SDS011;6874;52.084;5.090;2023-04-06T12:14:16;10.87;;;10.57;;
13605;SDS011;6874;52.084;5.090;2023-04-06T12:16:41;11.90;;;11.53;;
13605;SDS011;6874;52.084;5.090;2023-04-06T12:19:07;11.23;;;10.93;;
13605;SDS011;6874;52.084;5.090;2023-04-06T12:21:33;9.93;;;9.63;;
13605;SDS011;6874;52.084;5.090;2023-04-06T12:24:01;9.97;;;9.67;;
13605;SDS011;6874;52.084;5.090;2023-04-06T12:26:27;10.10;;;9.80;;
13605;SDS011;6874;52.084;5.090;2023-04-06T12:28:54;11.23;;;10.93;;
13605;SDS011;6874;52.084;5.090;2023-04-06T12:31:20;10.90;;;10.60;;
13605;SDS011;6874;52.084;5.090;2023-04-06T12:33:47;9.80;;;9.50;;
13605;SDS011;6874;52.084;5.090;2023-04-06T12:36:16;9.73;;;9.43;;
13605;SDS011;6874;52.084;5.090;2023-04-06T12:38:44;10.30;;;10.00;;
13605;SDS011;6874;52.084;5.090;2023-04-06T12:41:10;9.73;;;9.43;;
13605;SDS011;6874;52.084;5.090;2023-04-06T12:43:36;9.57;;;9.27;;
13605;SDS011;6874;52.084;5.090;2023-04-06T12:46:02;9.23;;;8.93;;
13605;SDS011;6874;52.084;5.090;2023-04-06T12:48:28;10.40;;;10.10;;
13605;SDS011;6874;52.084;5.090;2023-04-06T12:51:03;9.10;;;8.80;;
13605;SDS011;6874;52.084;5.090;2023-04-06T12:53:30;9.57;;;9.27;;
13605;SDS011;6874;52.084;5.090;2023-04-06T12:55:57;9.67;;;9.37;;
13605;SDS011;6874;52.084;5.090;2023-04-06T12:58:23;9.33;;;9.03;;
13605;SDS011;6874;52.084;5.090;2023-04-06T13:00:50;9.57;;;9.27;;
13605;SDS011;6874;52.084;5.090;2023-04-06T13:03:16;9.33;;;9.03;;
13605;SDS011;6874;52.084;5.090;2023-04-06T13:05:43;9.70;;;9.40;;
13605;SDS011;6874;52.084;5.090;2023-04-06T13:08:09;9.93;;;9.63;;
13605;SDS011;6874;52.084;5.090;2023-04-06T13:10:35;9.63;;;9.33;;
13605;SDS011;6874;52.084;5.090;2023-04-06T13:13:01;9.80;;;9.50;;
13605;SDS011;6874;52.084;5.090;2023-04-06T13:15:27;11.30;;;11.00;;
13605;SDS011;6874;52.084;5.090;2023-04-06T13:17:53;10.67;;;10.37;;
13605;SDS011;6874;52.084;5.090;2023-04-06T13:20:18;10.03;;;9.73;;
13605;SDS011;6874;52.084;5.090;2023-04-06T13:22:44;11.37;;;11.07;;
13605;SDS011;6874;52.084;5.090;2023-04-06T13:25:10;10.67;;;10.37;;
13605;SDS011;6874;52.084;5.090;2023-04-06T13:27:35;9.97;;;9.67;;
13605;SDS011;6874;52.084;5.090;2023-04-06T13:30:01;10.83;;;10.53;;
13605;SDS011;6874;52.084;5.090;2023-04-06T13:32:28;11.17;;;10.87;;
13605;SDS011;6874;52.084;5.090;2023-04-06T13:34:56;10.40;;;10.10;;
13605;SDS011;6874;52.084;5.090;2023-04-06T13:37:22;10.67;;;10.37;;
13605;SDS011;6874;52.084;5.090;2023-04-06T13:39:48;9.80;;;9.50;;
13605;SDS011;6874;52.084;5.090;2023-04-06T13:42:14;10.63;;;10.33;;
13605;SDS011;6874;52.084;5.090;2023-04-06T13:44:40;11.10;;;10.80;;
13605;SDS011;6874;52.084;5.090;2023-04-06T13:47:05;11.20;;;10.90;;
13605;SDS011;6874;52.084;5.090;2023-04-06T13:49:31;10.80;;;10.50;;
13605;SDS011;6874;52.084;5.090;2023-04-06T13:51:57;11.13;;;10.83;;
13605;SDS011;6874;52.084;5.090;2023-04-06T13:54:23;12.53;;;12.13;;
13605;SDS011;6874;52.084;5.090;2023-04-06T13:56:48;10.47;;;10.17;;
13605;SDS011;6874;52.084;5.090;2023-04-06T13:59:14;10.10;;;9.80;;
13605;SDS011;6874;52.084;5.090;2023-04-06T14:01:40;10.97;;;10.67;;
13605;SDS011;6874;52.084;5.090;2023-04-06T14:04:05;10.93;;;10.63;;
13605;SDS011;6874;52.084;5.090;2023-04-06T14:06:31;10.17;;;9.87;;
13605;SDS011;6874;52.084;5.090;2023-04-06T14:08:57;10.37;;;10.07;;
13605;SDS011;6874;52.084;5.090;2023-04-06T14:11:23;11.47;;;11.13;;
13605;SDS011;6874;52.084;5.090;2023-04-06T14:13:48;10.57;;;10.27;;
13605;SDS011;6874;52.084;5.090;2023-04-06T14:16:14;10.33;;;10.03;;
13605;SDS011;6874;52.084;5.090;2023-04-06T14:18:40;10.17;;;9.87;;
13605;SDS011;6874;52.084;5.090;2023-04-06T14:21:05;10.40;;;10.10;;
13605;SDS011;6874;52.084;5.090;2023-04-06T14:23:31;10.10;;;9.80;;
13605;SDS011;6874;52.084;5.090;2023-04-06T14:26:01;9.90;;;9.60;;
13605;SDS011;6874;52.084;5.090;2023-04-06T14:28:31;11.27;;;10.93;;
13605;SDS011;6874;52.084;5.090;2023-04-06T14:30:58;10.50;;;10.20;;
13605;SDS011;6874;52.084;5.090;2023-04-06T14:33:25;10.67;;;10.37;;
13605;SDS011;6874;52.084;5.090;2023-04-06T14:35:55;10.17;;;9.87;;
13605;SDS011;6874;52.084;5.090;2023-04-06T14:38:21;10.17;;;9.87;;
13605;SDS011;6874;52.084;5.090;2023-04-06T14:40:47;11.53;;;11.20;;
13605;SDS011;6874;52.084;5.090;2023-04-06T14:43:13;10.50;;;10.20;;
13605;SDS011;6874;52.084;5.090;2023-04-06T14:45:38;10.67;;;10.37;;
13605;SDS011;6874;52.084;5.090;2023-04-06T14:48:04;11.03;;;10.73;;
13605;SDS011;6874;52.084;5.090;2023-04-06T14:50:37;11.27;;;10.97;;
13605;SDS011;6874;52.084;5.090;2023-04-06T14:53:03;11.13;;;10.83;;